createdAt,value
2023-01-17T00:01:12.982Z,0.95
2023-01-17T00:03:57.888Z,3.88
2023-01-17T00:06:43.858Z,3.20
2023-01-17T00:09:30.116Z,2.50
2023-01-17T00:11:57.566Z,2.50
2023-01-17T00:14:24.003Z,2.97
2023-01-17T00:16:50.409Z,1.25
2023-01-17T00:19:35.961Z,1.58
2023-01-17T00:22:27.267Z,1.55
2023-01-17T00:25:12.140Z,6.67
2023-01-17T00:27:38.506Z,3.38
2023-01-17T00:30:05.481Z,3.08
2023-01-17T00:32:31.820Z,2.55
2023-01-17T00:34:58.151Z,3.78
2023-01-17T00:37:24.474Z,1.63
2023-01-17T00:39:50.817Z,2.25
2023-01-17T00:42:17.141Z,5.07
2023-01-17T00:45:01.890Z,2.85
2023-01-17T00:47:46.743Z,2.53
2023-01-17T00:50:31.799Z,1.63
2023-01-17T00:53:22.579Z,1.77
2023-01-17T00:56:07.466Z,2.22
2023-01-17T00:58:52.620Z,2.78
2023-01-17T01:01:37.667Z,2.15
2023-01-17T01:04:22.631Z,1.97
2023-01-17T01:07:07.427Z,1.02
2023-01-17T01:09:52.066Z,0.90
2023-01-17T01:12:36.773Z,2.08
2023-01-17T01:15:21.467Z,2.88
2023-01-17T01:18:06.201Z,3.00
2023-01-17T01:20:51.006Z,2.35
2023-01-17T01:23:35.857Z,1.90
2023-01-17T01:26:22.573Z,1.27
2023-01-17T01:29:07.245Z,1.02
2023-01-17T01:31:52.434Z,1.53
2023-01-17T01:34:18.926Z,1.10
2023-01-17T01:36:45.334Z,2.25
2023-01-17T01:39:11.793Z,1.58
2023-01-17T01:41:38.162Z,2.65
2023-01-17T01:44:04.857Z,3.00
2023-01-17T01:46:39.509Z,3.28
2023-01-17T01:49:17.433Z,1.38
2023-01-17T01:51:49.157Z,1.98
2023-01-17T01:54:20.417Z,1.23
2023-01-17T01:56:50.052Z,2.43
2023-01-17T01:59:19.951Z,3.75
2023-01-17T02:01:48.154Z,0.85
2023-01-17T02:04:15.178Z,0.32
2023-01-17T02:06:45.997Z,1.75
2023-01-17T02:09:15.170Z,0.83
2023-01-17T02:11:41.856Z,2.65
2023-01-17T02:14:08.852Z,0.40
2023-01-17T02:17:06.029Z,0.82
2023-01-17T02:20:05.119Z,0.60
2023-01-17T02:22:56.105Z,0.63
2023-01-17T02:25:25.480Z,1.67
2023-01-17T02:28:04.250Z,1.27
2023-01-17T02:30:33.704Z,1.50
2023-01-17T02:33:09.373Z,2.47
2023-01-17T02:35:49.984Z,0.80
2023-01-17T02:38:37.048Z,1.15
2023-01-17T02:41:13.675Z,1.08
2023-01-17T02:43:40.509Z,1.10
2023-01-17T02:46:08.887Z,1.75
2023-01-17T02:48:36.987Z,1.00
2023-01-17T02:51:18.649Z,2.55
2023-01-17T02:54:19.436Z,1.42
2023-01-17T02:57:06.737Z,1.00
2023-01-17T02:59:55.729Z,2.60
2023-01-17T03:02:31.095Z,3.13
2023-01-17T03:05:04.915Z,1.27
2023-01-17T03:07:33.016Z,4.15
2023-01-17T03:10:03.577Z,5.10
2023-01-17T03:12:32.200Z,1.55
2023-01-17T03:14:58.675Z,2.67
2023-01-17T03:17:30.344Z,1.10
2023-01-17T03:19:56.730Z,3.03
2023-01-17T03:22:23.221Z,3.70
2023-01-17T03:24:50.259Z,3.28
2023-01-17T03:27:16.624Z,1.40
2023-01-17T03:29:42.985Z,1.95
2023-01-17T03:32:09.364Z,2.80
2023-01-17T03:34:35.729Z,1.00
2023-01-17T03:37:02.076Z,2.63
2023-01-17T03:39:28.507Z,1.47
2023-01-17T03:41:54.946Z,2.08
2023-01-17T03:44:21.324Z,3.53
2023-01-17T03:46:47.680Z,3.80
2023-01-17T03:49:14.040Z,2.00
2023-01-17T03:51:40.396Z,3.07
2023-01-17T03:54:06.789Z,2.80
2023-01-17T03:56:33.185Z,1.25
2023-01-17T03:58:59.542Z,4.40
2023-01-17T04:01:26.054Z,2.58
2023-01-17T04:03:52.607Z,4.03
2023-01-17T04:06:18.970Z,1.15
2023-01-17T04:08:45.339Z,1.63
2023-01-17T04:11:11.685Z,4.38
2023-01-17T04:13:38.028Z,3.38
2023-01-17T04:16:04.881Z,1.53
2023-01-17T04:18:31.238Z,1.63
2023-01-17T04:20:57.679Z,1.33
2023-01-17T04:23:24.159Z,2.45
2023-01-17T04:25:50.648Z,1.77
2023-01-17T04:28:17.088Z,5.90
2023-01-17T04:30:43.464Z,2.05
2023-01-17T04:33:09.839Z,2.40
2023-01-17T04:35:36.229Z,2.28
2023-01-17T04:38:03.178Z,4.03
2023-01-17T04:40:29.657Z,3.10
2023-01-17T04:42:57.775Z,4.13
2023-01-17T04:45:24.171Z,1.45
2023-01-17T04:47:50.566Z,0.95
2023-01-17T04:50:17.598Z,2.45
2023-01-17T04:52:44.158Z,3.27
2023-01-17T04:55:10.580Z,3.85
2023-01-17T04:57:36.946Z,1.33
2023-01-17T05:00:04.515Z,3.95
2023-01-17T05:02:31.002Z,0.82
2023-01-17T05:04:57.354Z,2.20
2023-01-17T05:07:23.711Z,0.77
2023-01-17T05:09:50.080Z,2.30
2023-01-17T05:12:16.459Z,3.33
2023-01-17T05:14:42.849Z,3.33
2023-01-17T05:17:11.135Z,3.60
2023-01-17T05:19:37.676Z,5.13
2023-01-17T05:22:14.736Z,3.22
2023-01-17T05:24:42.982Z,3.00
2023-01-17T05:27:09.614Z,5.05
2023-01-17T05:29:36.164Z,2.40
2023-01-17T05:32:02.872Z,1.23
2023-01-17T05:34:29.265Z,2.70
2023-01-17T05:36:55.829Z,2.20
2023-01-17T05:39:22.316Z,2.60
2023-01-17T05:41:48.668Z,1.20
2023-01-17T05:44:18.028Z,2.15
2023-01-17T05:46:44.409Z,2.03
2023-01-17T05:49:10.862Z,3.00
2023-01-17T05:51:39.440Z,4.13
2023-01-17T05:54:06.092Z,1.53
2023-01-17T05:56:33.234Z,2.42
2023-01-17T05:59:00.148Z,3.70
2023-01-17T06:01:26.525Z,3.03
2023-01-17T06:03:52.891Z,4.68
2023-01-17T06:06:19.236Z,1.70
2023-01-17T06:08:45.596Z,3.72
2023-01-17T06:11:11.988Z,1.23
2023-01-17T06:13:38.360Z,1.08
2023-01-17T06:16:04.926Z,5.05
2023-01-17T06:18:31.929Z,1.40
2023-01-17T06:20:58.647Z,4.53
2023-01-17T06:23:25.492Z,2.50
2023-01-17T06:25:52.486Z,4.53
2023-01-17T06:28:21.718Z,2.03
2023-01-17T06:30:48.830Z,5.67
2023-01-17T06:33:15.671Z,4.43
2023-01-17T06:35:50.423Z,2.67
2023-01-17T06:38:18.138Z,2.90
2023-01-17T06:44:31.860Z,1.30
2023-01-17T06:46:58.454Z,2.67
2023-01-17T06:49:25.984Z,3.83
2023-01-17T06:51:52.458Z,2.63
2023-01-17T06:54:20.869Z,4.63
2023-01-17T06:57:00.389Z,5.37
2023-01-17T06:59:26.778Z,3.67
2023-01-17T07:01:58.435Z,5.95
2023-01-17T07:04:24.861Z,3.83
2023-01-17T07:06:54.333Z,4.35
2023-01-17T07:09:20.776Z,3.53
2023-01-17T07:11:47.145Z,2.72
2023-01-17T07:14:14.527Z,6.85
2023-01-17T07:17:00.147Z,4.88
2023-01-17T07:19:26.524Z,8.45
2023-01-17T07:21:58.965Z,4.97
2023-01-17T07:24:25.313Z,4.93
2023-01-17T07:26:59.813Z,2.83
2023-01-17T07:29:26.206Z,2.75
2023-01-17T07:31:52.579Z,4.22
2023-01-17T07:34:18.959Z,7.43
2023-01-17T07:36:45.436Z,6.22
2023-01-17T07:39:12.027Z,8.20
2023-01-17T07:41:41.259Z,4.78
2023-01-17T07:44:10.225Z,4.70
2023-01-17T07:46:38.738Z,4.83
2023-01-17T07:49:44.594Z,4.57
2023-01-17T07:52:11.084Z,5.05
2023-01-17T07:54:39.565Z,4.88
2023-01-17T07:57:06.126Z,5.47
2023-01-17T07:59:45.688Z,4.90
2023-01-17T08:02:19.457Z,6.00
2023-01-17T08:05:16.776Z,3.47
2023-01-17T08:07:43.160Z,7.22
2023-01-17T08:10:13.128Z,5.38
2023-01-17T08:12:39.512Z,3.83
2023-01-17T08:15:06.531Z,3.42
2023-01-17T08:17:57.529Z,3.38
2023-01-17T08:20:27.549Z,3.17
2023-01-17T08:22:56.054Z,7.25
2023-01-17T08:25:26.249Z,13.97
2023-01-17T08:27:56.910Z,10.18
2023-01-17T08:30:23.977Z,3.20
2023-01-17T08:32:50.403Z,4.63
2023-01-17T08:35:57.498Z,3.72
2023-01-17T08:38:43.145Z,4.03
2023-01-17T08:41:09.566Z,3.00
2023-01-17T08:43:36.025Z,3.88
2023-01-17T08:46:02.463Z,3.17
2023-01-17T08:48:34.971Z,9.85
2023-01-17T08:51:02.515Z,2.53
2023-01-17T08:53:30.171Z,3.65
2023-01-17T08:56:02.160Z,3.20
2023-01-17T08:58:30.821Z,3.35
2023-01-17T09:01:06.045Z,4.35
2023-01-17T09:03:34.093Z,5.07
2023-01-17T09:06:12.589Z,3.20
2023-01-17T09:08:39.701Z,3.20
2023-01-17T09:11:12.997Z,4.70
2023-01-17T09:13:39.535Z,5.82
2023-01-17T09:16:06.568Z,5.57
2023-01-17T09:18:35.881Z,5.95
2023-01-17T09:21:18.159Z,1.75
2023-01-17T09:23:44.906Z,3.65
2023-01-17T09:26:22.789Z,3.40
2023-01-17T09:28:49.397Z,2.50
2023-01-17T09:31:17.566Z,6.43
2023-01-17T09:33:44.371Z,5.10
2023-01-17T09:36:11.377Z,3.95
2023-01-17T09:38:38.173Z,3.13
2023-01-17T09:41:21.960Z,2.27
2023-01-17T09:43:56.847Z,3.47
2023-01-17T09:46:28.652Z,3.17
2023-01-17T09:49:13.003Z,2.72
2023-01-17T09:51:39.580Z,3.58
2023-01-17T09:54:18.975Z,3.33
2023-01-17T09:56:53.027Z,3.88
2023-01-17T09:59:35.354Z,3.08
2023-01-17T10:02:28.345Z,4.75
2023-01-17T10:05:07.073Z,2.47
2023-01-17T10:08:19.257Z,4.63
2023-01-17T10:11:23.303Z,3.95
2023-01-17T10:14:19.969Z,7.18
2023-01-17T10:17:02.230Z,9.52
2023-01-17T10:19:41.025Z,5.25
2023-01-17T10:22:17.159Z,2.40
2023-01-17T10:24:54.572Z,2.80
2023-01-17T10:27:57.908Z,5.60
2023-01-17T10:30:33.666Z,4.85
2023-01-17T10:33:14.911Z,4.35
2023-01-17T10:35:51.653Z,4.63
2023-01-17T10:38:19.483Z,3.88
2023-01-17T10:40:54.818Z,4.10
2023-01-17T10:43:45.521Z,6.03
2023-01-17T10:46:19.999Z,4.70
2023-01-17T10:48:49.618Z,7.87
2023-01-17T10:51:26.822Z,4.90
2023-01-17T10:54:18.267Z,5.43
2023-01-17T10:56:44.709Z,5.10
2023-01-17T10:59:32.118Z,3.70
2023-01-17T11:02:23.696Z,3.30
2023-01-17T11:04:54.536Z,6.53
2023-01-17T11:07:24.403Z,4.00
2023-01-17T11:10:36.705Z,6.93
2023-01-17T11:13:26.960Z,9.30
2023-01-17T11:15:57.701Z,4.07
2023-01-17T11:18:28.945Z,3.83
2023-01-17T11:21:11.286Z,3.95
2023-01-17T11:23:40.703Z,6.35
2023-01-17T11:26:11.134Z,5.30
2023-01-17T11:28:40.030Z,5.30
2023-01-17T11:31:34.167Z,3.88
2023-01-17T11:34:15.484Z,5.32
2023-01-17T11:36:42.442Z,4.22
2023-01-17T11:39:27.568Z,6.00
2023-01-17T11:41:54.508Z,4.70
2023-01-17T11:44:28.846Z,4.32
2023-01-17T11:47:13.591Z,8.63
2023-01-17T11:49:41.894Z,6.63
2023-01-17T11:52:10.378Z,7.28
2023-01-17T11:54:40.263Z,4.00
2023-01-17T11:57:31.421Z,4.38
2023-01-17T12:00:28.473Z,5.78
2023-01-17T12:03:15.096Z,6.45
2023-01-17T12:05:55.269Z,5.90
2023-01-17T12:08:41.445Z,4.47
2023-01-17T12:11:22.034Z,5.32
2023-01-17T12:14:15.686Z,9.02
2023-01-17T12:16:44.985Z,4.35
2023-01-17T12:19:23.375Z,4.15
2023-01-17T12:22:22.878Z,5.13
2023-01-17T12:25:25.935Z,4.32
2023-01-17T12:28:08.695Z,2.55
2023-01-17T12:30:52.070Z,4.15
2023-01-17T12:33:27.843Z,3.72
2023-01-17T12:36:02.075Z,4.77
2023-01-17T12:38:40.672Z,3.63
2023-01-17T12:41:16.777Z,2.53
2023-01-17T12:43:44.766Z,2.38
2023-01-17T12:46:27.098Z,3.83
2023-01-17T12:49:25.914Z,3.53
2023-01-17T12:52:29.951Z,3.80
2023-01-17T12:55:02.355Z,2.05
2023-01-17T12:58:07.905Z,2.50
2023-01-17T13:00:48.977Z,4.38
2023-01-17T13:03:52.439Z,2.73
2023-01-17T13:06:45.709Z,4.53
2023-01-17T13:09:17.048Z,3.63
2023-01-17T13:11:52.730Z,3.50
2023-01-17T13:14:19.188Z,2.95
2023-01-17T13:16:58.613Z,1.90
2023-01-17T13:19:42.613Z,2.58
2023-01-17T13:22:17.342Z,2.60
2023-01-17T13:25:12.810Z,4.07
2023-01-17T13:27:47.288Z,2.53
2023-01-17T13:30:43.376Z,2.40
2023-01-17T13:33:40.291Z,3.03
2023-01-17T13:36:17.933Z,4.10
2023-01-17T13:39:02.485Z,3.00
2023-01-17T13:41:36.887Z,2.25
2023-01-17T13:44:22.936Z,1.80
2023-01-17T13:47:26.012Z,2.95
2023-01-17T13:49:56.747Z,2.13
2023-01-17T13:52:26.223Z,3.03
2023-01-17T13:54:57.881Z,1.83
2023-01-17T13:57:29.903Z,2.23
2023-01-17T14:00:28.540Z,3.70
2023-01-17T14:02:55.680Z,2.35
2023-01-17T14:05:42.052Z,0.85
2023-01-17T14:08:18.906Z,1.27
2023-01-17T14:10:49.521Z,1.13
2023-01-17T14:13:34.805Z,1.15
2023-01-17T14:16:02.802Z,2.30
2023-01-17T14:18:40.636Z,1.52
2023-01-17T14:21:19.013Z,1.35
2023-01-17T14:24:03.918Z,1.70
2023-01-17T14:26:37.512Z,2.25
2023-01-17T14:29:41.595Z,1.40
2023-01-17T14:32:14.195Z,1.30
2023-01-17T14:34:41.035Z,1.15
2023-01-17T14:37:20.265Z,1.53
2023-01-17T14:39:49.530Z,1.92
2023-01-17T14:42:20.292Z,1.67
2023-01-17T14:44:56.685Z,2.15
2023-01-17T14:47:23.242Z,1.55
2023-01-17T14:50:08.654Z,1.30
2023-01-17T14:52:35.068Z,3.47
2023-01-17T14:55:14.484Z,1.90
2023-01-17T14:57:40.931Z,1.63
2023-01-17T15:00:10.941Z,1.80
2023-01-17T15:02:41.943Z,2.87
2023-01-17T15:05:13.114Z,2.03
2023-01-17T15:07:40.132Z,3.00
2023-01-17T15:10:12.848Z,2.85
2023-01-17T15:12:39.362Z,2.10
2023-01-17T15:15:26.882Z,2.10
2023-01-17T15:18:13.269Z,3.33
2023-01-17T15:20:41.769Z,2.95
2023-01-17T15:23:21.549Z,2.53
2023-01-17T15:25:50.740Z,3.15
2023-01-17T15:28:18.233Z,2.47
2023-01-17T15:31:06.782Z,2.63
2023-01-17T15:33:34.649Z,2.42
2023-01-17T15:36:21.238Z,4.82
2023-01-17T15:38:59.495Z,4.22
2023-01-17T15:41:38.077Z,5.23
2023-01-17T15:44:05.370Z,3.28
2023-01-17T15:46:42.057Z,6.00
2023-01-17T15:49:19.177Z,3.38
2023-01-17T15:51:50.518Z,3.30
2023-01-17T15:54:34.488Z,2.27
2023-01-17T15:57:20.234Z,2.35
2023-01-17T16:00:06.983Z,2.88
2023-01-17T16:02:55.763Z,3.85
2023-01-17T16:05:22.815Z,3.60
2023-01-17T16:07:56.452Z,4.07
2023-01-17T16:10:28.529Z,4.38
2023-01-17T16:12:56.177Z,3.65
2023-01-17T16:15:23.630Z,3.28
2023-01-17T16:18:04.379Z,4.53
2023-01-17T16:20:35.895Z,7.40
2023-01-17T16:23:02.641Z,5.57
2023-01-17T16:25:32.455Z,3.50
2023-01-17T16:27:59.811Z,5.80
2023-01-17T16:30:26.717Z,5.43
2023-01-17T16:32:53.141Z,5.00
2023-01-17T16:35:22.455Z,6.60
2023-01-17T16:37:51.353Z,5.60
2023-01-17T16:40:20.047Z,4.38
2023-01-17T16:42:47.336Z,4.30
2023-01-17T16:45:14.673Z,4.57
2023-01-17T16:47:42.706Z,3.88
2023-01-17T16:50:11.440Z,6.38
2023-01-17T16:52:38.345Z,5.30
2023-01-17T16:55:12.371Z,5.88
2023-01-17T16:57:40.148Z,3.90
2023-01-17T17:00:07.279Z,4.32
2023-01-17T17:02:33.836Z,4.32
2023-01-17T17:05:00.405Z,3.67
2023-01-17T17:07:26.818Z,5.07
2023-01-17T17:09:53.198Z,7.50
2023-01-17T17:12:19.611Z,3.63
2023-01-17T17:14:45.989Z,5.50
2023-01-17T17:17:12.440Z,6.43
2023-01-17T17:19:38.812Z,4.65
2023-01-17T17:22:09.442Z,6.57
2023-01-17T17:24:35.917Z,9.77
2023-01-17T17:27:02.263Z,9.57
2023-01-17T17:29:28.628Z,5.05
2023-01-17T17:31:54.999Z,4.70
2023-01-17T17:34:27.608Z,3.97
2023-01-17T17:36:59.106Z,6.15
2023-01-17T17:39:25.491Z,7.15
2023-01-17T17:41:56.418Z,16.52
2023-01-17T17:44:22.806Z,14.30
2023-01-17T17:46:59.299Z,14.10
2023-01-17T17:49:36.838Z,17.50
2023-01-17T17:52:08.888Z,15.90
2023-01-17T17:54:35.558Z,13.35
2023-01-17T17:57:05.211Z,20.50
2023-01-17T17:59:32.903Z,20.13
2023-01-17T18:02:10.767Z,10.32
2023-01-17T18:04:43.750Z,19.35
2023-01-17T18:07:10.220Z,10.25
2023-01-17T18:09:36.679Z,10.27
2023-01-17T18:12:36.201Z,7.03
2023-01-17T18:15:09.860Z,9.63
2023-01-17T18:17:58.855Z,8.85
2023-01-17T18:20:28.338Z,8.40
2023-01-17T18:22:54.672Z,12.60
2023-01-17T18:25:43.101Z,21.63
2023-01-17T18:29:11.926Z,21.73
2023-01-17T18:31:38.463Z,20.15
2023-01-17T18:34:07.961Z,19.50
2023-01-17T18:36:34.792Z,12.98
2023-01-17T18:39:02.466Z,13.50
2023-01-17T18:41:31.261Z,11.32
2023-01-17T18:43:58.226Z,16.67
2023-01-17T18:46:28.154Z,11.43
2023-01-17T18:48:58.015Z,7.82
2023-01-17T18:51:24.902Z,5.23
2023-01-17T18:53:54.011Z,8.00
2023-01-17T18:56:22.230Z,10.30
2023-01-17T18:58:50.571Z,5.20
2023-01-17T19:01:25.673Z,10.88
2023-01-17T19:03:57.167Z,8.17
2023-01-17T21:26:04.065Z,5.55
2023-01-17T21:28:33.201Z,6.75
2023-01-17T21:31:00.879Z,9.05
2023-01-17T21:33:29.422Z,9.30
2023-01-17T21:36:05.324Z,9.68
2023-01-17T21:38:32.778Z,7.53
2023-01-17T21:41:05.373Z,6.82
2023-01-17T21:43:32.795Z,9.32
2023-01-17T21:46:03.288Z,9.80
2023-01-17T21:48:40.623Z,9.75
2023-01-17T21:51:08.127Z,12.38
2023-01-17T21:53:39.883Z,10.90
2023-01-17T21:56:30.993Z,11.05
2023-01-17T21:59:04.183Z,10.30
2023-01-17T22:01:33.216Z,11.45
2023-01-17T22:04:03.565Z,10.27
2023-01-17T22:06:34.404Z,16.92
2023-01-17T22:09:15.018Z,12.85
2023-01-17T22:11:42.556Z,11.73
2023-01-17T22:14:26.308Z,9.43
2023-01-17T22:17:01.805Z,11.60
2023-01-17T22:19:36.459Z,13.07
2023-01-17T22:22:03.101Z,19.10
2023-01-17T22:24:29.499Z,25.67
2023-01-17T22:26:55.924Z,24.55
2023-01-17T22:29:23.410Z,18.73
2023-01-17T22:31:49.864Z,10.90
2023-01-17T22:34:27.692Z,10.48
2023-01-17T22:36:54.132Z,11.43
2023-01-17T22:39:20.743Z,8.30
2023-01-17T22:41:47.113Z,12.77
2023-01-17T22:44:17.906Z,8.90
2023-01-17T22:46:50.656Z,11.90
2023-01-17T22:49:17.997Z,14.27
2023-01-17T22:51:52.684Z,9.45
2023-01-17T22:54:27.163Z,10.13
2023-01-17T22:56:55.809Z,27.05
2023-01-17T22:59:22.179Z,25.08
2023-01-17T23:01:50.740Z,16.33
2023-01-17T23:04:17.292Z,24.55
2023-01-17T23:06:43.682Z,20.25
2023-01-17T23:09:43.164Z,17.30
2023-01-17T23:12:15.715Z,12.65
2023-01-17T23:15:03.669Z,13.93
2023-01-17T23:17:56.929Z,10.00
2023-01-17T23:20:23.328Z,8.50
2023-01-17T23:23:07.107Z,13.23
2023-01-17T23:25:38.448Z,8.32
2023-01-17T23:28:10.856Z,8.20
2023-01-17T23:30:40.307Z,8.68
2023-01-17T23:33:08.852Z,8.05
2023-01-17T23:35:43.795Z,8.52
2023-01-17T23:38:29.363Z,8.25
2023-01-17T23:41:26.515Z,12.77
2023-01-17T23:43:54.825Z,7.78
2023-01-17T23:46:30.212Z,10.18
2023-01-17T23:48:56.682Z,9.63
2023-01-17T23:51:25.135Z,9.88
2023-01-17T23:54:05.115Z,11.30
2023-01-17T23:56:41.824Z,8.10
2023-01-17T23:59:11.365Z,7.00
